TimeEDT,TemperatureF,Dew PointF,Humidity,Sea Level PressureIn,VisibilityMPH,Wind Direction,Wind SpeedMPH,Gust SpeedMPH,PrecipitationIn,Events,Conditions,WindDirDegrees,DateUTC
12:15 AM,53.6,44.6,72,30.32,10.0,East,3.5,-,N/A,,Clear,80,2012-10-13 04:15:00
12:35 AM,50.0,44.6,82,30.34,10.0,Calm,Calm,-,N/A,,Clear,0,2012-10-13 04:35:00
12:55 AM,51.8,42.8,71,30.34,10.0,Calm,Calm,-,N/A,,Clear,0,2012-10-13 04:55:00
1:15 AM,53.6,44.6,72,30.34,10.0,ENE,5.8,-,N/A,,Clear,60,2012-10-13 05:15:00
1:55 AM,51.8,44.6,76,30.35,10.0,ENE,9.2,-,N/A,,Clear,60,2012-10-13 05:55:00
2:35 AM,51.8,44.6,76,30.36,10.0,ENE,6.9,-,N/A,,Clear,70,2012-10-13 06:35:00
2:55 AM,51.8,42.8,71,30.36,10.0,ENE,6.9,-,N/A,,Clear,60,2012-10-13 06:55:00
3:15 AM,50.0,42.8,76,30.36,10.0,ENE,6.9,-,N/A,,Clear,60,2012-10-13 07:15:00
3:35 AM,48.2,42.8,82,30.37,10.0,NE,6.9,-,N/A,,Clear,50,2012-10-13 07:35:00
3:55 AM,48.2,42.8,82,30.37,10.0,NE,5.8,-,N/A,,Clear,50,2012-10-13 07:55:00
4:15 AM,48.2,41.0,76,30.37,10.0,NE,4.6,-,N/A,,Clear,50,2012-10-13 08:15:00
4:35 AM,48.2,39.2,71,30.38,10.0,NE,5.8,-,N/A,,Clear,50,2012-10-13 08:35:00
4:55 AM,48.2,39.2,71,30.38,10.0,NE,3.5,-,N/A,,Clear,40,2012-10-13 08:55:00
5:15 AM,46.4,39.2,76,30.38,10.0,NE,4.6,-,N/A,,Clear,50,2012-10-13 09:15:00
5:35 AM,46.4,37.4,71,30.40,10.0,Calm,Calm,-,N/A,,Clear,0,2012-10-13 09:35:00
5:55 AM,44.6,39.2,81,30.40,10.0,NNE,4.6,-,N/A,,Clear,30,2012-10-13 09:55:00
6:15 AM,44.6,39.2,81,30.40,10.0,NNE,4.6,-,N/A,,Clear,30,2012-10-13 10:15:00
6:35 AM,44.6,37.4,76,30.41,10.0,NE,3.5,-,N/A,,Clear,40,2012-10-13 10:35:00
6:55 AM,44.6,37.4,76,30.42,10.0,Calm,Calm,-,N/A,,Clear,0,2012-10-13 10:55:00
7:15 AM,44.6,37.4,76,30.43,10.0,NE,4.6,-,N/A,,Clear,40,2012-10-13 11:15:00
7:35 AM,44.6,37.4,76,30.43,10.0,NNE,5.8,-,N/A,,Clear,30,2012-10-13 11:35:00
7:55 AM,44.6,37.4,76,30.44,10.0,NNE,4.6,-,N/A,,Clear,30,2012-10-13 11:55:00
8:15 AM,46.4,37.4,71,30.45,10.0,NNE,8.1,-,N/A,,Clear,30,2012-10-13 12:15:00
8:35 AM,46.4,37.4,71,30.45,10.0,Calm,Calm,-,N/A,,Clear,0,2012-10-13 12:35:00
8:55 AM,48.2,37.4,66,30.47,10.0,NE,5.8,-,N/A,,Clear,40,2012-10-13 12:55:00
9:15 AM,50.0,39.2,66,30.46,10.0,NE,4.6,-,N/A,,Clear,50,2012-10-13 13:15:00
9:55 AM,53.6,39.2,58,30.46,10.0,NE,10.4,-,N/A,,Clear,50,2012-10-13 13:55:00
10:35 AM,57.2,39.2,51,30.47,10.0,East,9.2,-,N/A,,Clear,80,2012-10-13 14:35:00
10:55 AM,57.2,41.0,55,30.47,10.0,ENE,8.1,-,N/A,,Clear,70,2012-10-13 14:55:00
11:15 AM,59.0,41.0,51,30.46,10.0,ENE,9.2,-,N/A,,Clear,70,2012-10-13 15:15:00
11:35 AM,60.8,42.8,52,30.47,10.0,ENE,8.1,-,N/A,,Clear,70,2012-10-13 15:35:00
11:55 AM,60.8,42.8,52,30.46,10.0,East,10.4,-,N/A,,Clear,100,2012-10-13 15:55:00
12:15 PM,62.6,42.8,48,30.45,10.0,East,8.1,-,N/A,,Clear,80,2012-10-13 16:15:00
12:35 PM,62.6,42.8,48,30.44,10.0,ENE,10.4,16.1,N/A,,Clear,70,2012-10-13 16:35:00
12:55 PM,62.6,42.8,48,30.44,10.0,East,5.8,-,N/A,,Clear,90,2012-10-13 16:55:00
1:35 PM,64.4,42.8,45,30.42,10.0,SE,5.8,-,N/A,,Clear,130,2012-10-13 17:35:00
1:55 PM,64.4,42.8,45,30.41,10.0,NNE,5.8,-,N/A,,Clear,30,2012-10-13 17:55:00
2:15 PM,66.2,42.8,43,30.40,10.0,Calm,Calm,-,N/A,,Clear,0,2012-10-13 18:15:00
2:35 PM,66.2,42.8,43,30.39,10.0,Calm,Calm,-,N/A,,Clear,0,2012-10-13 18:35:00
2:55 PM,66.2,42.8,43,30.38,10.0,ESE,5.8,-,N/A,,Clear,120,2012-10-13 18:55:00
3:15 PM,66.2,42.8,43,30.37,10.0,Calm,Calm,-,N/A,,Clear,0,2012-10-13 19:15:00
3:35 PM,66.2,42.8,43,30.37,10.0,ESE,4.6,-,N/A,,Clear,120,2012-10-13 19:35:00
3:55 PM,66.2,44.6,46,30.36,10.0,Calm,Calm,-,N/A,,Clear,0,2012-10-13 19:55:00
4:35 PM,66.2,44.6,46,30.36,10.0,East,5.8,-,N/A,,Clear,80,2012-10-13 20:35:00
4:55 PM,66.2,42.8,43,30.35,10.0,SSE,4.6,-,N/A,,Clear,150,2012-10-13 20:55:00
5:15 PM,66.2,42.8,43,30.36,10.0,ENE,4.6,-,N/A,,Clear,60,2012-10-13 21:15:00
5:35 PM,66.2,42.8,43,30.36,10.0,Calm,Calm,-,N/A,,Clear,0,2012-10-13 21:35:00
5:55 PM,66.2,44.6,46,30.35,10.0,East,3.5,-,N/A,,Clear,90,2012-10-13 21:55:00
6:15 PM,64.4,44.6,49,30.35,10.0,Calm,Calm,-,N/A,,Clear,0,2012-10-13 22:15:00
6:35 PM,60.8,46.4,59,30.35,10.0,Calm,Calm,-,N/A,,Clear,0,2012-10-13 22:35:00
6:55 PM,57.2,46.4,67,30.35,10.0,Calm,Calm,-,N/A,,Clear,0,2012-10-13 22:55:00
7:15 PM,57.2,46.4,67,30.35,10.0,Calm,Calm,-,N/A,,Clear,0,2012-10-13 23:15:00
7:35 PM,55.4,46.4,72,30.35,10.0,Calm,Calm,-,N/A,,Clear,0,2012-10-13 23:35:00
8:35 PM,51.8,46.4,82,30.36,10.0,Calm,Calm,-,N/A,,Clear,0,2012-10-14 00:35:00
8:55 PM,50.0,44.6,82,30.36,10.0,Calm,Calm,-,N/A,,Clear,0,2012-10-14 00:55:00
10:15 PM,48.2,44.6,87,30.36,10.0,Calm,Calm,-,N/A,,Clear,0,2012-10-14 02:15:00
10:35 PM,46.4,44.6,93,30.36,10.0,Calm,Calm,-,N/A,,Clear,0,2012-10-14 02:35:00
10:55 PM,46.4,42.8,87,30.36,10.0,Calm,Calm,-,N/A,,Clear,0,2012-10-14 02:55:00
11:15 PM,46.4,42.8,87,30.35,10.0,Calm,Calm,-,N/A,,Clear,0,2012-10-14 03:15:00